Shoshone, California Weather observations

Data are for observation ending at time listed.
 Day   Time    Ave.   Ave.  Ave.  Vector   Max.   Stn.    Total    Solar   Ave.  
  of    of     Air    Rel.  Wind   Wind    Wind   Baro.  Precip.   Rad.    Soil  
Year   Day     Temp.  Hum.  Speed  Dir.    Gust   Pres.                    Temp. 
2016   (PST)    F      %     mph   deg.    mph     mb.     in.     W/m2     F   
------------------------------------------------------------------------------
 236    8:00   83.0    32    1.1    45      3.8    968     0.00     388    99999.0
 236    9:00   87.7    25    1.5   243      5.8    969     0.00     584    99999.0
 236   10:00   91.3    20    2.2   122      7.4    969     0.00     746    99999.0
 236   11:00   94.0    16    3.8   161     10.9    968     0.00     860    99999.0
 236   12:00   96.0    15    4.1   164     11.9    968     0.00     909    99999.0
 236   13:00   98.9    14    3.2   162     10.5    968     0.00     893    99999.0
 236   14:00  100.6    13    4.5   171     15.4    966     0.00     817    99999.0
 236   15:00  101.4    12    4.0   172     10.6    966     0.00     686    99999.0
 236   16:00  101.9    12    4.9   179     14.5    965     0.00     515    99999.0
 236   17:00  101.8    12    4.0   167     12.1    964     0.00     312    99999.0
 236   18:00   99.8    13    2.9   159      9.2    964     0.00     112    99999.0
 236   19:00   96.0    14    2.1   153      5.0    964     0.00       5    99999.0
 236   20:00   92.3    15    0.6   114      2.3    965     0.00       0    99999.0
 236   21:00   89.3    16    0.5    99      2.3    965     0.00       0    99999.0
 236   22:00   86.0    19    1.1   297      4.5    966     0.00       0    99999.0
 236   23:00   86.0    19    1.2   142      7.5    966     0.00       0    99999.0
 237    0:00   87.0    20    0.7    80      4.9    966     0.00       0    99999.0
 237    1:00   85.2    22    1.5   153      5.9    966     0.00       0    99999.0
 237    2:00   80.5    26    0.6   102      4.0    966     0.00       0    99999.0
 237    3:00   80.4    26    1.5   174      6.4    966     0.00       0    99999.0
 237    4:00   81.1    25    2.2    45      7.2    967     0.00       0    99999.0
 237    5:00   76.7    27    1.1    82      4.7    967     0.00       0    99999.0
 237    6:00   73.9    30    1.0    63      3.9    968     0.00      27    99999.0
 237    7:00   77.3    30    0.6    74      3.7    968     0.00     170    99999.0

Return to Shoshone, California graphs page.


Western Regional Climate Center,wrcc@dri.edu